sensor_id;sensor_type;location;lat;lon;timestamp;pressure;altitude;pressure_sealevel;temperature;humidity
68871;BME280;55906;52.278;6.808;2024-02-26T00:01:45;99989.97;;;6.14;91.55
68871;BME280;55906;52.278;6.808;2024-02-26T00:04:12;99987.47;;;6.18;89.18
68871;BME280;55906;52.278;6.808;2024-02-26T00:06:38;99987.41;;;6.15;90.17
68871;BME280;55906;52.278;6.808;2024-02-26T00:09:06;99978.72;;;6.16;90.15
68871;BME280;55906;52.278;6.808;2024-02-26T00:11:35;99984.81;;;6.17;89.78
68871;BME280;55906;52.278;6.808;2024-02-26T00:14:03;99990.94;;;6.17;90.16
68871;BME280;55906;52.278;6.808;2024-02-26T00:16:30;99996.06;;;6.14;90.17
68871;BME280;55906;52.278;6.808;2024-02-26T00:18:57;99996.16;;;6.17;89.98
68871;BME280;55906;52.278;6.808;2024-02-26T00:21:24;99993.50;;;6.16;89.63
68871;BME280;55906;52.278;6.808;2024-02-26T00:23:50;99997.84;;;6.15;89.42
68871;BME280;55906;52.278;6.808;2024-02-26T00:26:17;100000.50;;;6.17;89.13
68871;BME280;55906;52.278;6.808;2024-02-26T00:28:44;99996.91;;;6.13;89.81
68871;BME280;55906;52.278;6.808;2024-02-26T00:31:11;100000.50;;;6.17;89.71
68871;BME280;55906;52.278;6.808;2024-02-26T00:33:37;100000.41;;;6.14;90.14
68871;BME280;55906;52.278;6.808;2024-02-26T00:36:05;100007.34;;;6.13;89.36
68871;BME280;55906;52.278;6.808;2024-02-26T00:38:31;100011.69;;;6.13;89.67
68871;BME280;55906;52.278;6.808;2024-02-26T00:40:58;100004.75;;;6.13;90.05
68871;BME280;55906;52.278;6.808;2024-02-26T00:43:25;100000.28;;;6.09;88.86
68871;BME280;55906;52.278;6.808;2024-02-26T00:45:51;99997.66;;;6.09;89.33
68871;BME280;55906;52.278;6.808;2024-02-26T00:48:19;99996.78;;;6.08;89.41
68871;BME280;55906;52.278;6.808;2024-02-26T00:50:46;99998.41;;;6.05;89.31
68871;BME280;55906;52.278;6.808;2024-02-26T00:53:13;100000.09;;;6.03;88.94
68871;BME280;55906;52.278;6.808;2024-02-26T00:55:39;99996.50;;;5.99;89.49
68871;BME280;55906;52.278;6.808;2024-02-26T00:58:06;100005.09;;;5.95;89.59
68871;BME280;55906;52.278;6.808;2024-02-26T01:00:33;99993.50;;;5.87;89.74
68871;BME280;55906;52.278;6.808;2024-02-26T01:03:00;99999.69;;;5.89;89.38
68871;BME280;55906;52.278;6.808;2024-02-26T01:05:28;99999.69;;;5.89;89.30
68871;BME280;55906;52.278;6.808;2024-02-26T01:07:54;100004.78;;;5.86;89.29
68871;BME280;55906;52.278;6.808;2024-02-26T01:10:21;100000.34;;;5.84;90.11
68871;BME280;55906;52.278;6.808;2024-02-26T01:12:47;100012.47;;;5.82;89.55
68871;BME280;55906;52.278;6.808;2024-02-26T01:15:14;100002.03;;;5.82;89.58
68871;BME280;55906;52.278;6.808;2024-02-26T01:17:41;100005.47;;;5.81;89.24
68871;BME280;55906;52.278;6.808;2024-02-26T01:20:08;100007.16;;;5.78;88.99
68871;BME280;55906;52.278;6.808;2024-02-26T01:22:36;100012.38;;;5.78;89.37
68871;BME280;55906;52.278;6.808;2024-02-26T01:25:04;100004.50;;;5.77;89.91
68871;BME280;55906;52.278;6.808;2024-02-26T01:27:31;100004.53;;;5.78;89.48
68871;BME280;55906;52.278;6.808;2024-02-26T01:29:57;100009.63;;;5.74;89.21
68871;BME280;55906;52.278;6.808;2024-02-26T01:32:24;100005.19;;;5.71;89.43
68871;BME280;55906;52.278;6.808;2024-02-26T01:34:51;100004.34;;;5.72;89.88
68871;BME280;55906;52.278;6.808;2024-02-26T01:37:17;100003.41;;;5.70;89.18
68871;BME280;55906;52.278;6.808;2024-02-26T01:39:45;99998.25;;;5.72;90.09
68871;BME280;55906;52.278;6.808;2024-02-26T01:42:12;99991.31;;;5.72;89.21
68871;BME280;55906;52.278;6.808;2024-02-26T01:44:39;99989.38;;;5.67;89.28
68871;BME280;55906;52.278;6.808;2024-02-26T01:47:07;99986.09;;;5.72;90.11
68871;BME280;55906;52.278;6.808;2024-02-26T01:49:37;99987.84;;;5.73;89.26
68871;BME280;55906;52.278;6.808;2024-02-26T01:52:06;99977.31;;;5.70;88.98
68871;BME280;55906;52.278;6.808;2024-02-26T01:54:35;99986.00;;;5.69;90.11
68871;BME280;55906;52.278;6.808;2024-02-26T01:57:05;99993.06;;;5.73;89.21
68871;BME280;55906;52.278;6.808;2024-02-26T01:59:33;99994.84;;;5.74;89.83
68871;BME280;55906;52.278;6.808;2024-02-26T02:02:03;99980.88;;;5.72;89.57
68871;BME280;55906;52.278;6.808;2024-02-26T02:04:31;99987.75;;;5.70;90.19
68871;BME280;55906;52.278;6.808;2024-02-26T02:07:00;99988.75;;;5.74;89.93
68871;BME280;55906;52.278;6.808;2024-02-26T02:09:27;99983.47;;;5.72;89.82
68871;BME280;55906;52.278;6.808;2024-02-26T02:11:54;99986.13;;;5.74;90.05
68871;BME280;55906;52.278;6.808;2024-02-26T02:14:22;99994.09;;;5.78;89.30
68871;BME280;55906;52.278;6.808;2024-02-26T02:16:49;99997.31;;;5.70;89.42
68871;BME280;55906;52.278;6.808;2024-02-26T02:19:16;100001.94;;;5.78;88.80
68871;BME280;55906;52.278;6.808;2024-02-26T02:21:44;99998.47;;;5.79;89.08
68871;BME280;55906;52.278;6.808;2024-02-26T02:24:10;100001.19;;;5.83;89.31
68871;BME280;55906;52.278;6.808;2024-02-26T02:26:37;100006.44;;;5.84;89.25
68871;BME280;55906;52.278;6.808;2024-02-26T02:29:05;100007.34;;;5.85;89.59
68871;BME280;55906;52.278;6.808;2024-02-26T02:31:34;100016.88;;;5.84;89.03
68871;BME280;55906;52.278;6.808;2024-02-26T02:34:01;100023.97;;;5.88;88.86
68871;BME280;55906;52.278;6.808;2024-02-26T02:36:28;100021.31;;;5.87;89.22
68871;BME280;55906;52.278;6.808;2024-02-26T02:38:56;100025.00;;;5.92;88.53
68871;BME280;55906;52.278;6.808;2024-02-26T02:41:23;100029.41;;;5.94;88.78
68871;BME280;55906;52.278;6.808;2024-02-26T02:43:49;100027.59;;;5.92;89.50
68871;BME280;55906;52.278;6.808;2024-02-26T02:46:16;100032.88;;;5.93;88.72
68871;BME280;55906;52.278;6.808;2024-02-26T02:48:43;100028.53;;;5.94;88.83
68871;BME280;55906;52.278;6.808;2024-02-26T02:51:09;100033.75;;;5.94;88.92
68871;BME280;55906;52.278;6.808;2024-02-26T02:53:36;100039.94;;;5.97;89.29
68871;BME280;55906;52.278;6.808;2024-02-26T02:56:06;100040.13;;;6.03;88.69
68871;BME280;55906;52.278;6.808;2024-02-26T02:58:32;100048.00;;;6.05;89.23
68871;BME280;55906;52.278;6.808;2024-02-26T03:00:59;100046.34;;;6.07;88.00
68871;BME280;55906;52.278;6.808;2024-02-26T03:03:26;100058.63;;;6.11;88.79
68871;BME280;55906;52.278;6.808;2024-02-26T03:05:54;100056.91;;;6.12;88.18
68871;BME280;55906;52.278;6.808;2024-02-26T03:08:20;100056.16;;;6.16;88.25
68871;BME280;55906;52.278;6.808;2024-02-26T03:10:47;100056.25;;;6.19;87.83
68871;BME280;55906;52.278;6.808;2024-02-26T03:13:15;100059.75;;;6.19;88.27
68871;BME280;55906;52.278;6.808;2024-02-26T03:15:42;100048.47;;;6.20;87.93
68871;BME280;55906;52.278;6.808;2024-02-26T03:18:09;100053.78;;;6.23;88.05
68871;BME280;55906;52.278;6.808;2024-02-26T03:20:35;100050.47;;;6.29;88.12
68871;BME280;55906;52.278;6.808;2024-02-26T03:23:03;100052.19;;;6.28;86.73
68871;BME280;55906;52.278;6.808;2024-02-26T03:25:29;100054.91;;;6.31;87.50
68871;BME280;55906;52.278;6.808;2024-02-26T03:27:56;100058.47;;;6.35;87.60
68871;BME280;55906;52.278;6.808;2024-02-26T03:30:24;100066.47;;;6.39;87.69
68871;BME280;55906;52.278;6.808;2024-02-26T03:32:51;100065.72;;;6.43;86.68
68871;BME280;55906;52.278;6.808;2024-02-26T03:35:17;100061.31;;;6.42;86.92
68871;BME280;55906;52.278;6.808;2024-02-26T03:37:46;100062.28;;;6.46;87.62
68871;BME280;55906;52.278;6.808;2024-02-26T03:40:13;100059.59;;;6.43;87.45
68871;BME280;55906;52.278;6.808;2024-02-26T03:42:40;100065.66;;;6.42;87.11
68871;BME280;55906;52.278;6.808;2024-02-26T03:45:07;100073.38;;;6.37;87.48
68871;BME280;55906;52.278;6.808;2024-02-26T03:47:37;100073.28;;;6.34;86.46
68871;BME280;55906;52.278;6.808;2024-02-26T03:50:05;100077.44;;;6.28;87.35
68871;BME280;55906;52.278;6.808;2024-02-26T03:52:32;100071.38;;;6.29;87.43
68871;BME280;55906;52.278;6.808;2024-02-26T03:54:59;100076.53;;;6.27;87.17
68871;BME280;55906;52.278;6.808;2024-02-26T03:57:26;100081.75;;;6.27;87.27
68871;BME280;55906;52.278;6.808;2024-02-26T03:59:52;100087.78;;;6.25;87.18
68871;BME280;55906;52.278;6.808;2024-02-26T04:02:19;100081.59;;;6.21;87.55
68871;BME280;55906;52.278;6.808;2024-02-26T04:04:47;100079.81;;;6.20;87.49
68871;BME280;55906;52.278;6.808;2024-02-26T04:07:14;100081.22;;;6.09;87.30
68871;BME280;55906;52.278;6.808;2024-02-26T04:09:40;100088.25;;;6.12;88.32
68871;BME280;55906;52.278;6.808;2024-02-26T04:12:07;100083.78;;;6.07;88.37
68871;BME280;55906;52.278;6.808;2024-02-26T04:14:35;100089.09;;;6.10;88.23
68871;BME280;55906;52.278;6.808;2024-02-26T04:17:02;100096.19;;;6.15;87.81
68871;BME280;55906;52.278;6.808;2024-02-26T04:19:28;100097.81;;;6.11;87.32
68871;BME280;55906;52.278;6.808;2024-02-26T04:21:57;100097.91;;;6.14;88.32
68871;BME280;55906;52.278;6.808;2024-02-26T04:24:23;100096.97;;;6.12;87.96
68871;BME280;55906;52.278;6.808;2024-02-26T04:26:50;100097.66;;;6.06;88.37
68871;BME280;55906;52.278;6.808;2024-02-26T04:29:16;100102.28;;;6.15;88.16
68871;BME280;55906;52.278;6.808;2024-02-26T04:31:43;100102.38;;;6.18;88.68
68871;BME280;55906;52.278;6.808;2024-02-26T04:34:11;100105.81;;;6.17;88.16
68871;BME280;55906;52.278;6.808;2024-02-26T04:36:38;100111.88;;;6.16;88.19
68871;BME280;55906;52.278;6.808;2024-02-26T04:39:06;100107.88;;;6.27;88.13
68871;BME280;55906;52.278;6.808;2024-02-26T04:41:32;100104.81;;;6.12;88.51
68871;BME280;55906;52.278;6.808;2024-02-26T04:43:59;100102.22;;;6.14;88.68
68871;BME280;55906;52.278;6.808;2024-02-26T04:46:26;100113.91;;;6.25;88.10
68871;BME280;55906;52.278;6.808;2024-02-26T04:48:53;100121.44;;;6.16;88.56
68871;BME280;55906;52.278;6.808;2024-02-26T04:51:20;100118.03;;;6.18;87.76
68871;BME280;55906;52.278;6.808;2024-02-26T04:53:47;100122.63;;;6.25;87.82
68871;BME280;55906;52.278;6.808;2024-02-26T04:56:15;100125.41;;;6.31;87.92
68871;BME280;55906;52.278;6.808;2024-02-26T04:58:42;100120.19;;;6.31;88.04
68871;BME280;55906;52.278;6.808;2024-02-26T05:01:08;100133.06;;;6.25;88.17
68871;BME280;55906;52.278;6.808;2024-02-26T05:03:36;100132.31;;;6.29;87.91
68871;BME280;55906;52.278;6.808;2024-02-26T05:06:03;100129.72;;;6.29;87.96
68871;BME280;55906;52.278;6.808;2024-02-26T05:08:30;100134.94;;;6.29;87.61
68871;BME280;55906;52.278;6.808;2024-02-26T05:10:59;100128.16;;;6.36;88.03
68871;BME280;55906;52.278;6.808;2024-02-26T05:13:27;100132.59;;;6.38;87.97
68871;BME280;55906;52.278;6.808;2024-02-26T05:15:53;100135.59;;;6.22;88.57
68871;BME280;55906;52.278;6.808;2024-02-26T05:18:20;100137.63;;;6.32;87.57
68871;BME280;55906;52.278;6.808;2024-02-26T05:20:48;100136.06;;;6.37;87.58
68871;BME280;55906;52.278;6.808;2024-02-26T05:23:14;100135.78;;;6.28;88.03
68871;BME280;55906;52.278;6.808;2024-02-26T05:25:41;100144.72;;;6.36;87.93
68871;BME280;55906;52.278;6.808;2024-02-26T05:28:08;100147.00;;;6.26;88.85
68871;BME280;55906;52.278;6.808;2024-02-26T05:30:36;100143.75;;;6.33;88.71
68871;BME280;55906;52.278;6.808;2024-02-26T05:33:05;100141.84;;;6.27;89.29
68871;BME280;55906;52.278;6.808;2024-02-26T05:35:32;100141.84;;;6.27;87.93
68871;BME280;55906;52.278;6.808;2024-02-26T05:37:58;100142.44;;;6.19;88.45
68871;BME280;55906;52.278;6.808;2024-02-26T05:40:25;100143.59;;;6.28;88.14
68871;BME280;55906;52.278;6.808;2024-02-26T05:42:51;100128.78;;;6.27;88.67
68871;BME280;55906;52.278;6.808;2024-02-26T05:45:18;100136.31;;;6.18;89.00
68871;BME280;55906;52.278;6.808;2024-02-26T05:47:46;100143.66;;;6.30;88.87
68871;BME280;55906;52.278;6.808;2024-02-26T05:50:13;100148.97;;;6.33;88.36
68871;BME280;55906;52.278;6.808;2024-02-26T05:52:40;100142.91;;;6.34;88.06
68871;BME280;55906;52.278;6.808;2024-02-26T05:55:08;100151.72;;;6.37;87.96
68871;BME280;55906;52.278;6.808;2024-02-26T05:57:35;100155.28;;;6.39;88.26
68871;BME280;55906;52.278;6.808;2024-02-26T06:00:02;100155.38;;;6.42;87.95
68871;BME280;55906;52.278;6.808;2024-02-26T06:02:29;100163.81;;;6.34;87.93
68871;BME280;55906;52.278;6.808;2024-02-26T06:04:58;100167.09;;;6.28;88.45
68871;BME280;55906;52.278;6.808;2024-02-26T06:07:24;100172.72;;;6.40;87.71
68871;BME280;55906;52.278;6.808;2024-02-26T06:09:51;100170.94;;;6.39;87.47
68871;BME280;55906;52.278;6.808;2024-02-26T06:12:18;100176.41;;;6.47;87.49
68871;BME280;55906;52.278;6.808;2024-02-26T06:14:44;100179.72;;;6.41;87.50
68871;BME280;55906;52.278;6.808;2024-02-26T06:17:11;100185.03;;;6.45;87.59
68871;BME280;55906;52.278;6.808;2024-02-26T06:19:38;100190.31;;;6.46;87.93
68871;BME280;55906;52.278;6.808;2024-02-26T06:22:06;100192.25;;;6.52;86.98
68871;BME280;55906;52.278;6.808;2024-02-26T06:24:32;100194.88;;;6.52;87.27
68871;BME280;55906;52.278;6.808;2024-02-26T06:27:00;100209.91;;;6.59;87.68
68871;BME280;55906;52.278;6.808;2024-02-26T06:29:27;100204.63;;;6.57;87.22
68871;BME280;55906;52.278;6.808;2024-02-26T06:31:54;100203.84;;;6.60;87.21
68871;BME280;55906;52.278;6.808;2024-02-26T06:34:21;100203.69;;;6.55;88.15
68871;BME280;55906;52.278;6.808;2024-02-26T06:36:47;100211.75;;;6.63;88.10
68871;BME280;55906;52.278;6.808;2024-02-26T06:39:15;100215.41;;;6.68;87.88
68871;BME280;55906;52.278;6.808;2024-02-26T06:41:43;100215.16;;;6.60;88.27
68871;BME280;55906;52.278;6.808;2024-02-26T06:44:12;100214.97;;;6.54;88.07
68871;BME280;55906;52.278;6.808;2024-02-26T06:46:39;100216.06;;;6.61;88.28
68871;BME280;55906;52.278;6.808;2024-02-26T06:49:05;100213.53;;;6.64;87.87
68871;BME280;55906;52.278;6.808;2024-02-26T06:51:32;100220.44;;;6.62;87.97
68871;BME280;55906;52.278;6.808;2024-02-26T06:53:59;100226.31;;;6.55;88.39
68871;BME280;55906;52.278;6.808;2024-02-26T06:56:27;100223.91;;;6.61;88.35
68871;BME280;55906;52.278;6.808;2024-02-26T06:58:54;100223.81;;;6.58;87.88
68871;BME280;55906;52.278;6.808;2024-02-26T07:01:20;100219.50;;;6.60;88.72
68871;BME280;55906;52.278;6.808;2024-02-26T07:03:47;100221.22;;;6.59;88.63
68871;BME280;55906;52.278;6.808;2024-02-26T07:06:15;100226.16;;;6.50;88.79
68871;BME280;55906;52.278;6.808;2024-02-26T07:08:41;100225.25;;;6.50;89.31
68871;BME280;55906;52.278;6.808;2024-02-26T07:11:08;100226.66;;;6.65;88.82
68871;BME280;55906;52.278;6.808;2024-02-26T07:13:36;100231.81;;;6.64;89.00
68871;BME280;55906;52.278;6.808;2024-02-26T07:16:04;100237.06;;;6.64;88.92
68871;BME280;55906;52.278;6.808;2024-02-26T07:18:30;100232.47;;;6.57;88.80
68871;BME280;55906;52.278;6.808;2024-02-26T07:20:57;100237.69;;;6.57;89.75
68871;BME280;55906;52.278;6.808;2024-02-26T07:23:24;100240.47;;;6.61;89.66
68871;BME280;55906;52.278;6.808;2024-02-26T07:25:50;100246.38;;;6.56;89.84
68871;BME280;55906;52.278;6.808;2024-02-26T07:28:18;100246.66;;;6.65;89.59
68871;BME280;55906;52.278;6.808;2024-02-26T07:30:46;100252.78;;;6.65;89.90
68871;BME280;55906;52.278;6.808;2024-02-26T07:33:13;100250.63;;;6.52;90.04
68871;BME280;55906;52.278;6.808;2024-02-26T07:35:40;100247.50;;;6.64;89.90
68871;BME280;55906;52.278;6.808;2024-02-26T07:38:06;100244.00;;;6.63;89.88
68871;BME280;55906;52.278;6.808;2024-02-26T07:40:33;100234.53;;;6.67;90.48
68871;BME280;55906;52.278;6.808;2024-02-26T07:43:00;100246.47;;;6.59;90.63
68871;BME280;55906;52.278;6.808;2024-02-26T07:45:26;100240.56;;;6.64;90.69
68871;BME280;55906;52.278;6.808;2024-02-26T07:47:54;100247.69;;;6.70;89.90
68871;BME280;55906;52.278;6.808;2024-02-26T07:50:21;100251.06;;;6.66;90.97
68871;BME280;55906;52.278;6.808;2024-02-26T07:52:47;100258.16;;;6.70;89.82
68871;BME280;55906;52.278;6.808;2024-02-26T07:55:16;100253.03;;;6.73;90.04
68871;BME280;55906;52.278;6.808;2024-02-26T07:57:44;100266.09;;;6.73;90.05
68871;BME280;55906;52.278;6.808;2024-02-26T08:00:11;100254.00;;;6.77;90.39
68871;BME280;55906;52.278;6.808;2024-02-26T08:02:42;100271.66;;;6.84;90.42
68871;BME280;55906;52.278;6.808;2024-02-26T08:05:10;100262.88;;;6.82;90.43
68871;BME280;55906;52.278;6.808;2024-02-26T08:07:36;100274.31;;;6.85;89.58
68871;BME280;55906;52.278;6.808;2024-02-26T08:10:03;100272.78;;;6.92;89.17
68871;BME280;55906;52.278;6.808;2024-02-26T08:12:30;100268.16;;;6.83;89.72
68871;BME280;55906;52.278;6.808;2024-02-26T08:14:57;100274.66;;;6.69;89.90
68871;BME280;55906;52.278;6.808;2024-02-26T08:17:24;100280.56;;;6.90;89.93
68871;BME280;55906;52.278;6.808;2024-02-26T08:19:52;100290.75;;;6.81;89.85
68871;BME280;55906;52.278;6.808;2024-02-26T08:22:20;100289.84;;;6.81;89.82
68871;BME280;55906;52.278;6.808;2024-02-26T08:24:47;100281.91;;;6.78;90.43
68871;BME280;55906;52.278;6.808;2024-02-26T08:27:13;100291.69;;;6.83;89.86
68871;BME280;55906;52.278;6.808;2024-02-26T08:29:40;100295.50;;;6.94;89.44
68871;BME280;55906;52.278;6.808;2024-02-26T08:32:07;100305.22;;;6.98;89.76
68871;BME280;55906;52.278;6.808;2024-02-26T08:34:33;100296.44;;;6.96;90.22
68871;BME280;55906;52.278;6.808;2024-02-26T08:37:00;100290.22;;;6.93;90.04
68871;BME280;55906;52.278;6.808;2024-02-26T08:39:28;100301.06;;;7.05;89.42
68871;BME280;55906;52.278;6.808;2024-02-26T08:41:55;100297.56;;;7.04;88.85
68871;BME280;55906;52.278;6.808;2024-02-26T08:44:21;100309.19;;;7.14;88.55
68871;BME280;55906;52.278;6.808;2024-02-26T08:46:48;100308.69;;;6.97;89.43
68871;BME280;55906;52.278;6.808;2024-02-26T08:49:16;100309.09;;;7.11;89.06
68871;BME280;55906;52.278;6.808;2024-02-26T08:51:42;100318.19;;;6.95;89.52
68871;BME280;55906;52.278;6.808;2024-02-26T08:54:09;100313.41;;;7.09;88.62
68871;BME280;55906;52.278;6.808;2024-02-26T08:56:37;100312.69;;;7.15;89.17
68871;BME280;55906;52.278;6.808;2024-02-26T08:59:04;100308.13;;;7.07;89.61
68871;BME280;55906;52.278;6.808;2024-02-26T09:01:31;100325.13;;;6.93;89.87
68871;BME280;55906;52.278;6.808;2024-02-26T09:03:58;100311.91;;;6.89;90.71
68871;BME280;55906;52.278;6.808;2024-02-26T09:06:24;100323.63;;;7.01;89.97
68871;BME280;55906;52.278;6.808;2024-02-26T09:08:51;100325.72;;;7.13;89.40
68871;BME280;55906;52.278;6.808;2024-02-26T09:11:18;100325.91;;;7.19;90.33
68871;BME280;55906;52.278;6.808;2024-02-26T09:13:46;100329.78;;;7.03;89.65
68871;BME280;55906;52.278;6.808;2024-02-26T09:16:13;100335.00;;;7.03;90.40
68871;BME280;55906;52.278;6.808;2024-02-26T09:18:39;100336.22;;;7.15;90.96
68871;BME280;55906;52.278;6.808;2024-02-26T09:21:06;100335.75;;;6.99;91.43
68871;BME280;55906;52.278;6.808;2024-02-26T09:23:33;100331.84;;;7.14;90.81
68871;BME280;55906;52.278;6.808;2024-02-26T09:26:00;100331.19;;;7.21;91.17
68871;BME280;55906;52.278;6.808;2024-02-26T09:28:27;100345.94;;;7.19;91.34
68871;BME280;55906;52.278;6.808;2024-02-26T09:30:58;100342.34;;;7.15;91.34
68871;BME280;55906;52.278;6.808;2024-02-26T09:33:25;100348.63;;;7.20;91.53
68871;BME280;55906;52.278;6.808;2024-02-26T09:35:51;100360.06;;;7.24;91.48
68871;BME280;55906;52.278;6.808;2024-02-26T09:38:18;100363.47;;;7.21;91.71
68871;BME280;55906;52.278;6.808;2024-02-26T09:40:45;100353.84;;;7.20;91.54
68871;BME280;55906;52.278;6.808;2024-02-26T09:43:14;100372.94;;;7.18;91.06
68871;BME280;55906;52.278;6.808;2024-02-26T09:45:42;100368.94;;;7.29;91.44
68871;BME280;55906;52.278;6.808;2024-02-26T09:48:10;100377.09;;;7.39;91.20
68871;BME280;55906;52.278;6.808;2024-02-26T09:50:39;100383.31;;;7.43;91.17
68871;BME280;55906;52.278;6.808;2024-02-26T09:53:08;100382.66;;;7.50;91.05
68871;BME280;55906;52.278;6.808;2024-02-26T09:55:36;100387.38;;;7.33;91.13
68871;BME280;55906;52.278;6.808;2024-02-26T09:58:05;100398.03;;;7.39;91.10
68871;BME280;55906;52.278;6.808;2024-02-26T10:00:36;100400.56;;;7.36;90.84
68871;BME280;55906;52.278;6.808;2024-02-26T10:03:05;100406.03;;;7.44;90.72
68871;BME280;55906;52.278;6.808;2024-02-26T10:05:33;100401.00;;;7.50;90.35
68871;BME280;55906;52.278;6.808;2024-02-26T10:08:01;100409.69;;;7.49;90.50
68871;BME280;55906;52.278;6.808;2024-02-26T10:10:28;100411.47;;;7.50;90.97
68871;BME280;55906;52.278;6.808;2024-02-26T10:12:56;100410.72;;;7.54;90.47
68871;BME280;55906;52.278;6.808;2024-02-26T10:15:24;100417.66;;;7.54;90.52
68871;BME280;55906;52.278;6.808;2024-02-26T10:17:51;100413.97;;;7.47;90.88
68871;BME280;55906;52.278;6.808;2024-02-26T10:20:18;100420.66;;;7.66;90.41
68871;BME280;55906;52.278;6.808;2024-02-26T10:22:48;100431.66;;;7.83;89.91
68871;BME280;55906;52.278;6.808;2024-02-26T10:25:15;100436.94;;;7.84;89.75
68871;BME280;55906;52.278;6.808;2024-02-26T10:27:42;100444.75;;;7.83;89.55
68871;BME280;55906;52.278;6.808;2024-02-26T10:30:17;100446.81;;;7.93;89.39
68871;BME280;55906;52.278;6.808;2024-02-26T10:32:45;100443.81;;;7.81;89.55
68871;BME280;55906;52.278;6.808;2024-02-26T10:35:12;100454.00;;;7.71;89.40
68871;BME280;55906;52.278;6.808;2024-02-26T10:37:40;100449.78;;;7.77;89.00
68871;BME280;55906;52.278;6.808;2024-02-26T10:40:10;100451.38;;;7.71;89.03
68871;BME280;55906;52.278;6.808;2024-02-26T10:42:37;100453.34;;;7.79;89.05
68871;BME280;55906;52.278;6.808;2024-02-26T10:45:05;100456.91;;;7.81;88.92
68871;BME280;55906;52.278;6.808;2024-02-26T10:47:32;100459.38;;;7.76;89.15
68871;BME280;55906;52.278;6.808;2024-02-26T10:49:59;100468.31;;;7.83;89.21
68871;BME280;55906;52.278;6.808;2024-02-26T10:52:27;100471.78;;;7.82;88.70
68871;BME280;55906;52.278;6.808;2024-02-26T10:54:54;100477.13;;;7.85;88.22
68871;BME280;55906;52.278;6.808;2024-02-26T10:57:24;100487.50;;;7.82;88.13
68871;BME280;55906;52.278;6.808;2024-02-26T10:59:51;100480.06;;;7.95;88.16
68871;BME280;55906;52.278;6.808;2024-02-26T11:02:20;100481.75;;;7.93;87.77
68871;BME280;55906;52.278;6.808;2024-02-26T11:04:47;100492.03;;;7.87;87.88
68871;BME280;55906;52.278;6.808;2024-02-26T11:07:15;100488.47;;;7.85;88.43
68871;BME280;55906;52.278;6.808;2024-02-26T11:09:44;100488.38;;;7.82;88.50
68871;BME280;55906;52.278;6.808;2024-02-26T11:12:17;100494.78;;;7.92;87.96
68871;BME280;55906;52.278;6.808;2024-02-26T11:14:46;100494.38;;;7.80;87.96
68871;BME280;55906;52.278;6.808;2024-02-26T11:17:15;100493.84;;;7.90;88.10
68871;BME280;55906;52.278;6.808;2024-02-26T11:19:43;100500.78;;;7.88;88.07
68871;BME280;55906;52.278;6.808;2024-02-26T11:22:11;100501.91;;;7.96;87.60
68871;BME280;55906;52.278;6.808;2024-02-26T11:24:38;100509.56;;;7.90;87.60
68871;BME280;55906;52.278;6.808;2024-02-26T11:27:08;100505.44;;;7.98;87.36
68871;BME280;55906;52.278;6.808;2024-02-26T11:29:39;100506.16;;;7.92;87.76
68871;BME280;55906;52.278;6.808;2024-02-26T11:32:09;100507.19;;;7.97;87.57
68871;BME280;55906;52.278;6.808;2024-02-26T11:34:36;100511.44;;;7.94;87.73
68871;BME280;55906;52.278;6.808;2024-02-26T11:37:10;100509.47;;;8.15;87.28
68871;BME280;55906;52.278;6.808;2024-02-26T11:39:39;100516.19;;;8.07;87.59
68871;BME280;55906;52.278;6.808;2024-02-26T11:42:07;100513.44;;;8.02;87.81
68871;BME280;55906;52.278;6.808;2024-02-26T11:44:34;100503.34;;;7.86;87.96
68871;BME280;55906;52.278;6.808;2024-02-26T11:47:11;100504.50;;;7.96;88.10
68871;BME280;55906;52.278;6.808;2024-02-26T11:49:38;100505.53;;;8.01;87.89
68871;BME280;55906;52.278;6.808;2024-02-26T11:52:06;100514.06;;;7.94;88.01
68871;BME280;55906;52.278;6.808;2024-02-26T11:54:43;100518.50;;;7.96;88.28
68871;BME280;55906;52.278;6.808;2024-02-26T11:57:21;100524.81;;;8.03;88.25
68871;BME280;55906;52.278;6.808;2024-02-26T11:59:48;100513.97;;;7.91;88.11
68871;BME280;55906;52.278;6.808;2024-02-26T12:02:43;100520.13;;;8.21;87.00
68871;BME280;55906;52.278;6.808;2024-02-26T12:05:11;100522.19;;;8.03;87.68
68871;BME280;55906;52.278;6.808;2024-02-26T12:07:40;100516.44;;;8.15;87.69
68871;BME280;55906;52.278;6.808;2024-02-26T12:10:24;100517.88;;;8.05;87.43
68871;BME280;55906;52.278;6.808;2024-02-26T12:12:58;100515.50;;;8.13;86.86
68871;BME280;55906;52.278;6.808;2024-02-26T12:15:30;100523.75;;;8.26;87.24
68871;BME280;55906;52.278;6.808;2024-02-26T12:18:00;100523.81;;;8.28;86.82
68871;BME280;55906;52.278;6.808;2024-02-26T12:20:27;100533.41;;;7.99;86.70
68871;BME280;55906;52.278;6.808;2024-02-26T12:22:54;100531.72;;;8.01;87.38
68871;BME280;55906;52.278;6.808;2024-02-26T12:25:24;100528.81;;;8.20;87.16
68871;BME280;55906;52.278;6.808;2024-02-26T12:27:51;100539.66;;;8.32;86.44
68871;BME280;55906;52.278;6.808;2024-02-26T12:30:17;100540.69;;;8.36;86.19
68871;BME280;55906;52.278;6.808;2024-02-26T12:32:44;100539.47;;;8.26;85.85
68871;BME280;55906;52.278;6.808;2024-02-26T12:35:12;100545.03;;;8.36;86.58
68871;BME280;55906;52.278;6.808;2024-02-26T12:37:40;100547.69;;;8.37;86.25
68871;BME280;55906;52.278;6.808;2024-02-26T12:40:09;100554.81;;;8.41;86.01
68871;BME280;55906;52.278;6.808;2024-02-26T12:42:36;100555.13;;;8.52;86.08
68871;BME280;55906;52.278;6.808;2024-02-26T12:45:06;100555.25;;;8.56;85.96
68871;BME280;55906;52.278;6.808;2024-02-26T12:47:36;100562.44;;;8.63;85.95
68871;BME280;55906;52.278;6.808;2024-02-26T12:50:03;100564.25;;;8.66;86.06
68871;BME280;55906;52.278;6.808;2024-02-26T12:52:33;100570.44;;;8.68;85.27
68871;BME280;55906;52.278;6.808;2024-02-26T12:55:01;100573.78;;;8.62;85.18
68871;BME280;55906;52.278;6.808;2024-02-26T12:57:29;100579.78;;;8.58;85.05
68871;BME280;55906;52.278;6.808;2024-02-26T12:59:57;100577.09;;;8.57;84.62
68871;BME280;55906;52.278;6.808;2024-02-26T13:02:24;100576.66;;;8.42;85.57
68871;BME280;55906;52.278;6.808;2024-02-26T13:04:52;100577.19;;;8.60;85.21